createdAt,value
2023-05-14T00:01:28.124Z,25.88
2023-05-14T00:03:29.847Z,30.50
2023-05-14T00:05:31.619Z,30.63
2023-05-14T00:07:33.174Z,32.00
2023-05-14T00:09:35.583Z,35.17
2023-05-14T00:11:37.315Z,35.92
2023-05-14T00:13:38.835Z,33.97
2023-05-14T00:15:40.366Z,34.75
2023-05-14T00:17:42.530Z,33.78
2023-05-14T00:19:44.513Z,29.85
2023-05-14T00:21:47.183Z,36.85
2023-05-14T00:23:48.688Z,38.25
2023-05-14T00:25:50.529Z,35.13
2023-05-14T00:27:52.035Z,36.38
2023-05-14T00:29:53.571Z,39.95
2023-05-14T00:31:55.360Z,37.45
2023-05-14T00:33:56.853Z,36.60
2023-05-14T00:35:58.411Z,35.00
2023-05-14T00:37:59.917Z,36.28
2023-05-14T00:40:01.600Z,33.05
2023-05-14T00:42:03.294Z,32.97
2023-05-14T00:44:05.368Z,32.05
2023-05-14T00:46:07.153Z,32.10
2023-05-14T00:48:08.689Z,33.33
2023-05-14T00:50:11.998Z,32.20
2023-05-14T00:52:14.626Z,29.92
2023-05-14T00:54:17.195Z,27.45
2023-05-14T00:56:19.313Z,25.80
2023-05-14T00:58:22.110Z,23.92
2023-05-14T01:00:23.853Z,22.98
2023-05-14T01:02:25.827Z,22.73
2023-05-14T01:04:27.697Z,20.35
2023-05-14T01:06:54.555Z,20.80
2023-05-14T01:09:11.549Z,18.90
2023-05-14T01:11:20.064Z,17.15
2023-05-14T01:13:37.818Z,25.52
2023-05-14T01:15:40.192Z,18.20
2023-05-14T01:17:46.287Z,18.95
2023-05-14T01:19:48.692Z,18.65
2023-05-14T01:21:50.374Z,18.58
2023-05-14T01:23:51.880Z,22.83
2023-05-14T01:25:53.426Z,24.70
2023-05-14T01:28:29.686Z,29.50
2023-05-14T01:30:35.861Z,28.23
2023-05-14T01:32:39.693Z,25.45
2023-05-14T01:34:42.050Z,23.98
2023-05-14T01:36:44.293Z,23.35
2023-05-14T01:38:48.138Z,27.80
2023-05-14T01:40:50.741Z,31.80
2023-05-14T01:42:53.326Z,33.97
2023-05-14T01:44:55.604Z,36.78
2023-05-14T01:46:57.147Z,35.22
2023-05-14T01:48:58.775Z,33.38
2023-05-14T01:51:00.339Z,34.30
2023-05-14T01:53:02.048Z,33.80
2023-05-14T01:55:05.164Z,34.40
2023-05-14T01:57:06.688Z,47.72
2023-05-14T01:59:08.277Z,38.92
2023-05-14T02:01:09.792Z,38.20
2023-05-14T02:03:11.426Z,36.63
2023-05-14T02:05:13.592Z,32.65
2023-05-14T02:07:15.112Z,28.73
2023-05-14T02:09:16.752Z,26.92
2023-05-14T02:11:18.352Z,24.23
2023-05-14T02:13:19.889Z,24.23
2023-05-14T02:15:21.401Z,24.55
2023-05-14T02:17:23.020Z,22.02
2023-05-14T02:19:24.569Z,21.33
2023-05-14T02:21:26.173Z,22.13
2023-05-14T02:23:37.649Z,21.10
2023-05-14T02:25:42.391Z,23.30
2023-05-14T02:27:44.015Z,21.85
2023-05-14T02:29:46.083Z,21.60
2023-05-14T02:31:47.616Z,22.63
2023-05-14T02:33:49.277Z,25.00
2023-05-14T02:35:50.951Z,32.08
2023-05-14T02:37:52.475Z,27.95
2023-05-14T02:39:53.998Z,21.38
2023-05-14T02:41:55.554Z,19.27
2023-05-14T02:43:57.103Z,19.70
2023-05-14T02:45:58.640Z,20.17
2023-05-14T02:48:00.281Z,21.30
2023-05-14T02:50:01.888Z,22.02
2023-05-14T02:52:03.588Z,24.00
2023-05-14T02:54:05.392Z,22.30
2023-05-14T02:56:08.075Z,21.73
2023-05-14T02:58:10.408Z,23.35
2023-05-14T03:00:12.416Z,20.10
2023-05-14T03:02:14.441Z,21.98
2023-05-14T03:04:16.487Z,21.52
2023-05-14T03:06:17.996Z,21.30
2023-05-14T03:08:19.470Z,21.52
2023-05-14T03:10:21.372Z,21.92
2023-05-14T03:12:23.236Z,21.67
2023-05-14T03:14:24.738Z,20.30
2023-05-14T03:16:27.026Z,21.23
2023-05-14T03:18:30.641Z,20.05
2023-05-14T03:20:32.394Z,21.17
2023-05-14T03:22:34.042Z,22.48
2023-05-14T03:24:35.656Z,21.90
2023-05-14T03:26:37.567Z,22.27
2023-05-14T03:28:40.887Z,21.92
2023-05-14T03:30:42.526Z,19.70
2023-05-14T03:32:44.610Z,20.95
2023-05-14T03:34:46.190Z,22.35
2023-05-14T03:36:47.816Z,24.13
2023-05-14T03:38:49.332Z,21.65
2023-05-14T03:40:50.873Z,20.00
2023-05-14T03:42:52.466Z,18.35
2023-05-14T03:44:54.104Z,18.38
2023-05-14T03:46:56.047Z,18.83
2023-05-14T03:48:57.644Z,17.02
2023-05-14T03:50:59.331Z,16.38
2023-05-14T03:53:01.117Z,17.83
2023-05-14T03:55:02.843Z,16.05
2023-05-14T03:57:04.921Z,17.35
2023-05-14T03:59:06.789Z,17.10
2023-05-14T04:01:08.313Z,16.13
2023-05-14T04:03:09.983Z,15.15
2023-05-14T04:05:11.738Z,15.30
2023-05-14T04:07:13.342Z,15.95
2023-05-14T04:09:15.101Z,15.20
2023-05-14T04:11:16.597Z,15.30
2023-05-14T04:13:18.122Z,16.63
2023-05-14T04:15:19.643Z,25.92
2023-05-14T04:17:21.141Z,43.15
2023-05-14T04:19:22.650Z,27.45
2023-05-14T04:21:24.330Z,16.45
2023-05-14T04:23:25.903Z,13.38
2023-05-14T04:25:27.509Z,17.23
2023-05-14T04:27:29.135Z,23.27
2023-05-14T04:29:30.977Z,20.48
2023-05-14T04:31:32.483Z,18.90
2023-05-14T04:33:34.002Z,16.33
2023-05-14T04:35:35.528Z,13.32
2023-05-14T04:37:37.224Z,12.13
2023-05-14T04:39:38.903Z,11.95
2023-05-14T04:41:40.833Z,11.05
2023-05-14T04:43:42.342Z,11.15
2023-05-14T04:45:43.937Z,12.00
2023-05-14T04:47:46.853Z,12.20
2023-05-14T04:49:48.530Z,12.02
2023-05-14T04:51:50.069Z,11.82
2023-05-14T04:53:51.751Z,12.77
2023-05-14T04:55:54.147Z,12.90
2023-05-14T04:57:56.230Z,12.65
2023-05-14T04:59:57.955Z,13.52
2023-05-14T05:01:59.526Z,13.50
2023-05-14T05:04:01.037Z,12.35
2023-05-14T05:06:02.635Z,11.48
2023-05-14T05:08:04.607Z,10.73
2023-05-14T05:10:06.929Z,10.82
2023-05-14T05:12:08.854Z,9.82
2023-05-14T05:14:10.347Z,10.70
2023-05-14T05:16:11.942Z,8.73
2023-05-14T05:18:13.490Z,10.57
2023-05-14T05:20:15.155Z,10.88
2023-05-14T05:22:17.013Z,10.50
2023-05-14T05:24:18.582Z,9.00
2023-05-14T05:26:20.124Z,10.02
2023-05-14T05:28:21.746Z,9.30
2023-05-14T05:30:23.504Z,9.75
2023-05-14T05:32:25.468Z,8.85
2023-05-14T05:34:27.506Z,8.43
2023-05-14T05:36:28.998Z,7.78
2023-05-14T05:38:30.555Z,7.97
2023-05-14T05:40:32.124Z,7.63
2023-05-14T05:42:33.630Z,6.97
2023-05-14T05:44:35.572Z,7.57
2023-05-14T05:46:37.650Z,6.82
2023-05-14T05:48:39.294Z,6.03
2023-05-14T05:50:41.092Z,4.68
2023-05-14T05:52:42.716Z,3.97
2023-05-14T05:54:44.268Z,4.07
2023-05-14T05:56:45.841Z,4.25
2023-05-14T05:58:47.435Z,4.20
2023-05-14T06:00:49.005Z,4.03
2023-05-14T06:02:50.611Z,4.32
2023-05-14T06:04:53.220Z,4.57
2023-05-14T06:06:54.809Z,4.00
2023-05-14T06:08:56.324Z,4.40
2023-05-14T06:10:57.841Z,3.47
2023-05-14T06:12:59.397Z,4.15
2023-05-14T06:15:00.920Z,3.42
2023-05-14T06:17:02.556Z,3.75
2023-05-14T06:19:04.352Z,4.43
2023-05-14T06:21:05.960Z,4.35
2023-05-14T06:23:07.987Z,4.07
2023-05-14T06:25:10.139Z,3.25
2023-05-14T06:27:11.696Z,3.40
2023-05-14T06:29:13.202Z,3.22
2023-05-14T06:31:14.851Z,3.58
2023-05-14T06:33:17.016Z,2.70
2023-05-14T06:35:19.931Z,2.20
2023-05-14T06:37:21.476Z,2.20
2023-05-14T06:39:24.267Z,2.70
2023-05-14T06:41:26.246Z,3.00
2023-05-14T06:43:28.365Z,2.75
2023-05-14T06:45:31.221Z,2.83
2023-05-14T06:47:34.666Z,2.40
2023-05-14T06:49:36.734Z,2.20
2023-05-14T06:51:39.190Z,2.33
2023-05-14T06:53:40.979Z,2.35
2023-05-14T06:55:42.607Z,2.38
2023-05-14T06:57:45.036Z,2.38
2023-05-14T06:59:46.659Z,2.50
2023-05-14T07:01:48.593Z,5.13
2023-05-14T07:03:50.169Z,3.22
2023-05-14T07:05:51.983Z,2.20
2023-05-14T07:07:53.551Z,2.50
2023-05-14T07:09:55.068Z,2.88
2023-05-14T07:11:56.747Z,2.78
2023-05-14T07:13:58.304Z,2.70
2023-05-14T07:15:59.858Z,2.72
2023-05-14T07:18:01.518Z,3.10
2023-05-14T07:20:03.525Z,2.75
2023-05-14T07:22:05.377Z,3.03
2023-05-14T07:24:07.195Z,2.88
2023-05-14T07:26:08.799Z,3.20
2023-05-14T07:28:10.443Z,2.60
2023-05-14T07:30:12.109Z,2.47
2023-05-14T07:32:15.611Z,2.70
2023-05-14T07:34:18.522Z,2.53
2023-05-14T07:36:20.156Z,2.80
2023-05-14T07:38:21.919Z,3.15
2023-05-14T07:40:25.354Z,2.63
2023-05-14T07:42:35.759Z,2.47
2023-05-14T07:44:38.980Z,2.63
2023-05-14T07:46:41.035Z,2.53
2023-05-14T07:48:42.623Z,3.00
2023-05-14T07:50:44.539Z,2.83
2023-05-14T07:52:46.071Z,2.70
2023-05-14T07:54:48.862Z,2.65
2023-05-14T07:56:52.063Z,3.22
2023-05-14T07:58:53.675Z,2.25
2023-05-14T08:00:56.527Z,3.08
2023-05-14T08:02:58.384Z,2.20
2023-05-14T08:05:00.197Z,2.60
2023-05-14T08:07:01.909Z,3.17
2023-05-14T08:09:05.494Z,3.00
2023-05-14T08:11:07.119Z,3.70
2023-05-14T08:13:08.634Z,3.28
2023-05-14T08:15:10.625Z,3.50
2023-05-14T08:17:12.258Z,2.90
2023-05-14T08:19:14.195Z,2.80
2023-05-14T08:21:16.111Z,2.30
2023-05-14T08:23:17.743Z,2.70
2023-05-14T08:25:19.424Z,2.45
2023-05-14T08:27:21.600Z,2.40
2023-05-14T08:29:23.272Z,2.67
2023-05-14T08:31:24.970Z,2.25
2023-05-14T08:33:26.653Z,2.92
2023-05-14T08:35:28.176Z,2.22
2023-05-14T08:37:29.886Z,2.50
2023-05-14T08:39:31.428Z,2.17
2023-05-14T08:41:33.239Z,2.30
2023-05-14T08:43:49.798Z,2.50
2023-05-14T08:45:56.270Z,1.40
2023-05-14T08:47:59.315Z,2.13
2023-05-14T08:50:06.501Z,2.10
2023-05-14T08:52:09.859Z,2.60
2023-05-14T08:54:14.694Z,2.58
2023-05-14T08:56:18.275Z,2.30
2023-05-14T08:58:20.800Z,2.42
2023-05-14T09:00:23.215Z,2.63
2023-05-14T09:02:28.538Z,2.20
2023-05-14T09:04:31.257Z,2.60
2023-05-14T09:06:33.268Z,2.85
2023-05-14T09:08:36.445Z,2.25
2023-05-14T09:10:38.337Z,2.25
2023-05-14T09:12:39.912Z,2.50
2023-05-14T09:14:41.665Z,2.50
2023-05-14T09:16:47.693Z,2.50
2023-05-14T09:18:49.529Z,2.58
2023-05-14T09:20:52.459Z,2.80
2023-05-14T09:22:54.563Z,2.60
2023-05-14T09:25:09.365Z,2.80
2023-05-14T09:27:20.658Z,2.67
2023-05-14T09:29:28.478Z,2.67
2023-05-14T09:31:31.811Z,2.67
2023-05-14T09:33:33.557Z,2.42
2023-05-14T09:35:35.206Z,3.08
2023-05-14T09:37:37.172Z,3.45
2023-05-14T09:39:39.234Z,2.75
2023-05-14T09:41:40.885Z,4.65
2023-05-14T09:43:42.719Z,3.05
2023-05-14T09:45:44.410Z,2.85
2023-05-14T09:47:46.260Z,2.60
2023-05-14T09:49:48.925Z,3.00
2023-05-14T09:51:50.847Z,2.88
2023-05-14T09:53:53.358Z,2.63
2023-05-14T09:55:54.928Z,2.30
2023-05-14T09:57:56.432Z,2.70
2023-05-14T09:59:58.056Z,3.00
2023-05-14T10:02:00.380Z,2.65
2023-05-14T10:04:05.795Z,2.72
2023-05-14T10:06:08.737Z,3.00
2023-05-14T10:08:19.752Z,2.60
2023-05-14T10:10:26.385Z,2.58
2023-05-14T10:12:32.614Z,2.22
2023-05-14T10:14:41.228Z,2.47
2023-05-14T10:16:47.780Z,2.38
2023-05-14T10:18:53.861Z,2.28
2023-05-14T10:21:07.722Z,1.80
2023-05-14T10:23:09.644Z,2.00
2023-05-14T10:25:11.777Z,2.03
2023-05-14T10:27:13.727Z,2.15
2023-05-14T10:29:15.391Z,2.00
2023-05-14T10:31:17.431Z,2.17
2023-05-14T10:33:19.091Z,1.95
2023-05-14T10:35:25.345Z,1.60
2023-05-14T10:37:27.598Z,1.80
2023-05-14T10:39:49.748Z,1.67
2023-05-14T10:41:51.420Z,2.17
2023-05-14T10:43:52.980Z,1.83
2023-05-14T10:45:55.290Z,2.00
2023-05-14T10:47:56.846Z,2.28
2023-05-14T10:49:59.956Z,1.75
2023-05-14T10:52:02.047Z,1.88
2023-05-14T10:54:03.671Z,1.90
2023-05-14T10:56:10.824Z,1.80
2023-05-14T10:58:12.667Z,1.73
2023-05-14T11:00:15.063Z,1.60
2023-05-14T11:02:22.629Z,1.70
2023-05-14T11:04:25.086Z,1.77
2023-05-14T11:06:28.350Z,1.80
2023-05-14T11:08:31.302Z,1.90
2023-05-14T11:10:33.899Z,1.75
2023-05-14T11:12:40.671Z,1.83
2023-05-14T11:14:42.750Z,1.90
2023-05-14T11:16:44.397Z,1.60
2023-05-14T11:18:46.117Z,1.42
2023-05-14T11:20:47.803Z,1.60
2023-05-14T11:22:51.754Z,1.70
2023-05-14T11:24:53.641Z,1.42
2023-05-14T11:26:56.392Z,1.80
2023-05-14T11:28:57.998Z,1.50
2023-05-14T11:30:59.802Z,1.20
2023-05-14T11:33:02.135Z,1.52
2023-05-14T11:35:04.985Z,1.38
2023-05-14T11:37:08.302Z,1.40
2023-05-14T11:39:09.941Z,1.50
2023-05-14T11:41:14.339Z,1.80
2023-05-14T11:43:15.914Z,1.73
2023-05-14T11:45:26.563Z,1.65
2023-05-14T11:47:29.568Z,2.00
2023-05-14T11:49:32.378Z,2.00
2023-05-14T11:51:33.928Z,1.83
2023-05-14T11:53:35.669Z,1.95
2023-05-14T11:55:37.381Z,1.95
2023-05-14T11:57:39.081Z,1.85
2023-05-14T11:59:40.722Z,1.92
2023-05-14T12:01:42.564Z,1.77
2023-05-14T12:03:44.220Z,1.95
2023-05-14T12:06:08.259Z,2.00
2023-05-14T12:08:26.021Z,2.08
2023-05-14T12:10:27.701Z,1.50
2023-05-14T12:12:35.245Z,1.60
2023-05-14T12:14:45.368Z,1.63
2023-05-14T12:16:47.715Z,1.25
2023-05-14T12:18:49.568Z,1.40
2023-05-14T12:20:52.005Z,1.50
2023-05-14T12:22:54.125Z,1.75
2023-05-14T12:24:58.438Z,5.10
2023-05-14T12:27:01.783Z,2.13
2023-05-14T12:29:04.314Z,1.92
2023-05-14T12:31:06.222Z,1.73
2023-05-14T12:33:07.913Z,1.40
2023-05-14T12:35:11.109Z,1.92
2023-05-14T12:37:12.669Z,1.20
2023-05-14T12:39:14.277Z,2.08
2023-05-14T12:41:16.114Z,1.73
2023-05-14T12:43:17.648Z,1.85
2023-05-14T12:45:19.513Z,1.70
2023-05-14T12:47:21.173Z,1.40
2023-05-14T12:49:22.912Z,1.60
2023-05-14T12:51:24.503Z,1.65
2023-05-14T12:53:26.272Z,1.58
2023-05-14T12:55:27.977Z,1.55
2023-05-14T12:57:30.391Z,1.35
2023-05-14T12:59:31.916Z,1.40
2023-05-14T13:01:33.640Z,1.35
2023-05-14T13:03:35.307Z,1.30
2023-05-14T13:05:37.882Z,1.38
2023-05-14T13:07:39.690Z,1.30
2023-05-14T13:09:41.248Z,1.20
2023-05-14T13:11:42.801Z,1.20
2023-05-14T13:13:44.309Z,1.55
2023-05-14T13:15:46.870Z,1.13
2023-05-14T13:17:48.851Z,1.60
2023-05-14T13:19:50.337Z,1.33
2023-05-14T13:21:51.877Z,1.23
2023-05-14T13:23:53.408Z,1.40
2023-05-14T13:25:54.915Z,1.63
2023-05-14T13:27:56.545Z,1.42
2023-05-14T13:29:58.386Z,1.42
2023-05-14T13:31:59.928Z,1.50
2023-05-14T13:34:02.562Z,1.30
2023-05-14T13:36:04.877Z,1.30
2023-05-14T13:38:07.814Z,1.40
2023-05-14T13:40:10.314Z,1.40
2023-05-14T13:42:12.044Z,1.45
2023-05-14T13:44:13.528Z,1.27
2023-05-14T13:46:15.197Z,1.20
2023-05-14T13:48:16.907Z,1.35
2023-05-14T13:50:18.587Z,1.70
2023-05-14T13:52:20.133Z,2.08
2023-05-14T13:54:22.248Z,1.50
2023-05-14T13:56:23.887Z,1.58
2023-05-14T13:58:25.735Z,1.48
2023-05-14T14:00:27.583Z,1.10
2023-05-14T14:02:29.231Z,1.25
2023-05-14T14:04:31.098Z,1.70
2023-05-14T14:06:33.375Z,1.45
2023-05-14T14:08:34.940Z,1.30
2023-05-14T14:10:36.684Z,1.60
2023-05-14T14:12:38.369Z,1.48
2023-05-14T14:14:39.950Z,1.50
2023-05-14T14:16:41.625Z,1.58
2023-05-14T14:18:43.498Z,1.85
2023-05-14T14:20:45.386Z,1.80
2023-05-14T14:22:47.096Z,1.40
2023-05-14T14:24:48.611Z,2.28
2023-05-14T14:26:50.184Z,1.50
2023-05-14T14:28:51.714Z,1.48
2023-05-14T14:30:53.336Z,1.40
2023-05-14T14:32:55.005Z,1.42
2023-05-14T14:34:56.541Z,1.70
2023-05-14T14:36:58.057Z,1.52
2023-05-14T14:38:59.632Z,1.70
2023-05-14T14:41:03.215Z,1.38
2023-05-14T14:43:04.767Z,1.60
2023-05-14T14:45:07.332Z,1.40
2023-05-14T14:47:08.910Z,1.40
2023-05-14T14:49:10.465Z,1.38
2023-05-14T14:51:12.162Z,1.52
2023-05-14T14:53:13.808Z,1.40
2023-05-14T14:55:15.504Z,1.20
2023-05-14T14:57:17.106Z,1.20
2023-05-14T14:59:18.624Z,1.40
2023-05-14T15:01:21.297Z,1.67
2023-05-14T15:03:24.269Z,1.40
2023-05-14T15:05:26.326Z,1.20
2023-05-14T15:07:28.042Z,1.40
2023-05-14T15:09:29.737Z,1.30
2023-05-14T15:11:31.332Z,1.58
2023-05-14T15:13:32.860Z,1.67
2023-05-14T15:15:35.328Z,1.65
2023-05-14T15:17:36.848Z,1.60
2023-05-14T15:19:38.500Z,1.77
2023-05-14T15:21:40.050Z,1.67
2023-05-14T15:23:41.603Z,1.55
2023-05-14T15:25:43.251Z,2.45
2023-05-14T15:27:45.029Z,2.40
2023-05-14T15:29:46.740Z,1.70
2023-05-14T15:31:48.417Z,1.40
2023-05-14T15:33:50.581Z,1.83
2023-05-14T15:35:52.552Z,1.45
2023-05-14T15:37:57.196Z,1.98
2023-05-14T15:39:58.821Z,2.00
2023-05-14T15:42:00.326Z,1.63
2023-05-14T15:44:02.787Z,1.70
2023-05-14T15:46:04.353Z,1.67
2023-05-14T15:48:06.313Z,1.83
2023-05-14T15:50:08.627Z,2.15
2023-05-14T15:52:10.189Z,1.92
2023-05-14T15:54:11.726Z,1.70
2023-05-14T15:56:13.499Z,1.88
2023-05-14T15:58:14.972Z,2.50
2023-05-14T16:00:17.616Z,3.70
2023-05-14T16:02:19.188Z,3.17
2023-05-14T16:04:20.825Z,2.33
2023-05-14T16:06:22.371Z,2.63
2023-05-14T16:08:23.962Z,2.35
2023-05-14T16:10:25.935Z,2.35
2023-05-14T16:12:27.818Z,2.92
2023-05-14T16:14:29.317Z,2.08
2023-05-14T16:16:30.964Z,2.30
2023-05-14T16:18:33.591Z,2.35
2023-05-14T16:20:35.218Z,2.00
2023-05-14T16:22:36.749Z,2.08
2023-05-14T16:24:38.283Z,1.73
2023-05-14T16:26:40.400Z,1.85
2023-05-14T16:28:42.823Z,2.20
2023-05-14T16:30:44.412Z,2.53
2023-05-14T16:32:49.475Z,2.17
2023-05-14T16:34:51.237Z,3.13
2023-05-14T16:36:53.010Z,2.70
2023-05-14T16:39:06.791Z,2.70
2023-05-14T16:41:09.909Z,4.35
2023-05-14T16:43:11.770Z,4.22
2023-05-14T16:45:13.424Z,3.17
2023-05-14T16:47:14.939Z,3.10
2023-05-14T16:49:16.895Z,2.80
2023-05-14T16:51:18.482Z,3.13
2023-05-14T16:53:20.021Z,2.65
2023-05-14T16:55:21.829Z,2.70
2023-05-14T16:57:23.506Z,3.15
2023-05-14T16:59:25.332Z,3.50
2023-05-14T17:01:26.941Z,4.03
2023-05-14T17:03:28.463Z,3.58
2023-05-14T17:05:30.027Z,4.28
2023-05-14T17:07:31.666Z,3.42
2023-05-14T17:09:33.240Z,3.13
2023-05-14T17:11:34.725Z,2.83
2023-05-14T17:13:36.369Z,2.60
2023-05-14T17:15:39.169Z,3.20
2023-05-14T17:17:40.798Z,3.75
2023-05-14T17:19:42.584Z,4.53
2023-05-14T17:21:44.145Z,5.63
2023-05-14T17:23:45.669Z,9.45
2023-05-14T17:25:47.303Z,11.07
2023-05-14T17:27:48.914Z,15.30
2023-05-14T17:29:53.315Z,9.35
2023-05-14T17:31:54.956Z,9.00
2023-05-14T17:33:56.569Z,5.80
2023-05-14T17:35:58.942Z,8.15
2023-05-14T17:38:00.727Z,6.30
2023-05-14T17:40:03.517Z,19.08
2023-05-14T17:42:06.289Z,15.68
2023-05-14T17:44:12.830Z,13.48
2023-05-14T17:46:14.861Z,16.00
2023-05-14T17:48:16.417Z,15.32
2023-05-14T17:50:18.627Z,18.33
2023-05-14T17:52:20.228Z,16.52
2023-05-14T17:54:21.881Z,37.50
2023-05-14T17:56:23.487Z,40.95
2023-05-14T17:58:25.073Z,14.60
2023-05-14T18:00:26.595Z,14.90
2023-05-14T18:02:28.167Z,26.70
2023-05-14T18:04:29.695Z,28.85
2023-05-14T18:06:31.253Z,30.65
2023-05-14T18:08:32.761Z,29.30
2023-05-14T18:10:34.290Z,24.65
2023-05-14T18:12:35.947Z,26.25
2023-05-14T18:14:37.529Z,19.73
2023-05-14T18:16:39.212Z,36.30
2023-05-14T18:18:41.094Z,32.28
2023-05-14T18:20:42.812Z,43.58
2023-05-14T18:22:44.336Z,20.92
2023-05-14T18:24:45.843Z,20.70
2023-05-14T18:26:47.410Z,16.42
2023-05-14T18:28:49.067Z,19.70
2023-05-14T18:30:50.801Z,21.83
2023-05-14T18:32:52.533Z,12.23
2023-05-14T18:34:54.064Z,16.90
2023-05-14T18:36:55.703Z,8.63
2023-05-14T18:38:57.295Z,13.45
2023-05-14T18:40:58.921Z,12.23
2023-05-14T18:43:00.569Z,10.73
2023-05-14T18:45:02.310Z,9.00
2023-05-14T18:47:04.129Z,10.68
2023-05-14T18:49:05.694Z,12.93
2023-05-14T18:51:07.671Z,16.13
2023-05-14T18:53:09.446Z,22.88
2023-05-14T18:55:11.092Z,21.23
2023-05-14T18:57:13.645Z,20.58
2023-05-14T18:59:15.319Z,21.88
2023-05-14T19:01:16.863Z,16.52
2023-05-14T19:03:20.200Z,16.55
2023-05-14T19:05:22.268Z,16.13
2023-05-14T19:07:23.951Z,15.00
2023-05-14T19:09:26.891Z,20.17
2023-05-14T19:11:28.590Z,9.15
2023-05-14T19:13:30.339Z,7.78
2023-05-14T19:15:32.472Z,18.08
2023-05-14T19:17:35.262Z,11.45
2023-05-14T19:19:37.805Z,16.58
2023-05-14T19:21:39.361Z,16.88
2023-05-14T19:23:41.391Z,16.17
2023-05-14T19:25:42.993Z,15.20
2023-05-14T19:27:45.545Z,9.90
2023-05-14T19:29:47.069Z,7.03
2023-05-14T19:31:48.814Z,8.77
2023-05-14T19:33:51.095Z,13.32
2023-05-14T19:35:52.802Z,5.78
2023-05-14T19:37:54.414Z,3.40
2023-05-14T19:39:55.923Z,3.00
2023-05-14T19:41:57.564Z,2.72
2023-05-14T19:43:59.076Z,3.10
2023-05-14T19:46:01.593Z,2.85
2023-05-14T19:48:04.701Z,3.33
2023-05-14T19:50:08.444Z,3.65
2023-05-14T19:52:11.379Z,3.25
2023-05-14T19:54:12.901Z,6.75
2023-05-14T19:56:14.608Z,6.45
2023-05-14T19:58:16.145Z,4.03
2023-05-14T20:00:17.823Z,3.20
2023-05-14T20:02:22.001Z,4.10
2023-05-14T20:04:26.063Z,4.78
2023-05-14T20:06:27.666Z,4.95
2023-05-14T20:08:29.193Z,5.43
2023-05-14T20:10:31.222Z,6.03
2023-05-14T20:12:32.738Z,6.45
2023-05-14T20:14:34.229Z,4.93
2023-05-14T20:16:36.899Z,8.43
2023-05-14T20:18:38.484Z,3.60
2023-05-14T20:20:40.088Z,3.88
2023-05-14T20:22:42.866Z,4.00
2023-05-14T20:24:44.674Z,3.60
2023-05-14T20:26:46.401Z,3.58
2023-05-14T20:28:47.942Z,3.25
2023-05-14T20:30:49.466Z,2.97
2023-05-14T20:32:51.326Z,3.20
2023-05-14T20:34:52.863Z,3.47
2023-05-14T20:36:54.378Z,3.17
2023-05-14T20:38:56.337Z,3.78
2023-05-14T20:40:57.900Z,3.80
2023-05-14T20:42:59.477Z,3.35
2023-05-14T20:45:01.006Z,4.13
2023-05-14T20:47:02.559Z,3.80
2023-05-14T20:49:04.104Z,4.03
2023-05-14T20:51:06.509Z,4.20
2023-05-14T20:53:08.125Z,3.90
2023-05-14T20:55:10.046Z,4.60
2023-05-14T20:57:12.420Z,4.40
2023-05-14T20:59:13.958Z,5.07
2023-05-14T21:01:15.686Z,6.00
2023-05-14T21:03:17.427Z,7.72
2023-05-14T21:05:19.210Z,7.82
2023-05-14T21:07:20.773Z,7.30
2023-05-14T21:09:23.757Z,5.97
2023-05-14T21:11:25.861Z,6.43
2023-05-14T21:13:27.423Z,6.47
2023-05-14T21:15:30.642Z,8.73
2023-05-14T21:17:32.471Z,7.72
2023-05-14T21:19:34.002Z,11.52
2023-05-14T21:21:35.518Z,8.88
2023-05-14T21:23:37.101Z,5.88
2023-05-14T21:25:38.655Z,6.38
2023-05-14T21:27:40.210Z,7.05
2023-05-14T21:29:41.915Z,7.93
2023-05-14T21:31:43.482Z,8.50
2023-05-14T21:33:45.058Z,10.55
2023-05-14T21:35:46.615Z,11.70
2023-05-14T21:37:48.154Z,13.88
2023-05-14T21:39:49.686Z,8.48
2023-05-14T21:41:51.388Z,6.53
2023-05-14T21:43:52.917Z,8.50
2023-05-14T21:45:54.482Z,6.85
2023-05-14T21:47:56.190Z,6.00
2023-05-14T21:49:57.749Z,5.43
2023-05-14T21:51:59.271Z,6.10
2023-05-14T21:54:00.765Z,7.00
2023-05-14T21:56:02.257Z,11.48
2023-05-14T21:58:04.080Z,10.07
2023-05-14T22:00:10.548Z,6.88
2023-05-14T22:02:12.321Z,6.03
2023-05-14T22:04:14.149Z,5.90
2023-05-14T22:06:15.836Z,5.35
2023-05-14T22:08:17.707Z,5.95
2023-05-14T22:10:19.316Z,6.63
2023-05-14T22:12:20.884Z,5.78
2023-05-14T22:14:22.393Z,6.05
2023-05-14T22:16:26.391Z,6.35
2023-05-14T22:18:28.042Z,7.05
2023-05-14T22:20:29.628Z,6.55
2023-05-14T22:22:31.158Z,7.15
2023-05-14T22:24:32.721Z,7.30
2023-05-14T22:26:34.925Z,11.50
2023-05-14T22:28:39.816Z,16.17
2023-05-14T22:30:41.516Z,15.30
2023-05-14T22:32:43.190Z,14.10
2023-05-14T22:34:44.751Z,13.45
2023-05-14T22:36:46.289Z,10.98
2023-05-14T22:38:48.189Z,11.52
2023-05-14T22:40:49.738Z,10.93
2023-05-14T22:42:51.271Z,9.48
2023-05-14T22:44:52.755Z,10.30
2023-05-14T22:46:54.421Z,9.57
2023-05-14T22:48:55.985Z,8.48
2023-05-14T22:50:57.552Z,9.48
2023-05-14T22:52:59.051Z,12.65
2023-05-14T22:55:00.745Z,9.23
2023-05-14T22:57:03.417Z,9.57
2023-05-14T22:59:04.982Z,9.68
2023-05-14T23:01:06.499Z,9.32
2023-05-14T23:03:08.079Z,9.45
2023-05-14T23:05:09.916Z,8.98
2023-05-14T23:07:11.467Z,8.23
2023-05-14T23:09:12.969Z,8.52
2023-05-14T23:11:15.117Z,9.30
2023-05-14T23:13:16.824Z,10.02
2023-05-14T23:15:18.429Z,9.25
2023-05-14T23:17:20.071Z,9.05
2023-05-14T23:19:21.990Z,8.27
2023-05-14T23:21:24.064Z,8.75
2023-05-14T23:23:25.771Z,8.95
2023-05-14T23:25:27.447Z,8.90
2023-05-14T23:27:29.101Z,8.30
2023-05-14T23:29:30.731Z,7.85
2023-05-14T23:31:32.301Z,8.48
2023-05-14T23:33:33.909Z,7.95
2023-05-14T23:35:37.795Z,8.70
2023-05-14T23:37:43.021Z,8.40
2023-05-14T23:39:44.628Z,8.65
2023-05-14T23:41:46.266Z,9.15
2023-05-14T23:43:48.927Z,9.30
2023-05-14T23:45:50.692Z,9.02
2023-05-14T23:47:53.547Z,8.60
2023-05-14T23:49:55.119Z,9.05
2023-05-14T23:51:56.883Z,7.50
2023-05-14T23:53:58.729Z,9.05
2023-05-14T23:56:00.489Z,8.80
2023-05-14T23:58:02.014Z,8.73
